Terminal Aerodrome Forecast
Issued by NWS

Home | Current Version | Previous Version | Text Only | Print | Product List | Glossary Off
Versions: 1 2 3 4 5 6 7 8 9 10 11 12 13 14 15 16 17 18 19 20 21 22 23 24 25 26 27 28 29 30

000
FTUS43 KGRB 141120
TAFATW
TAF
KATW 141120Z 1412/1512 26003KT P6SM SCT012 BKN060
      TEMPO 1412/1414 BKN012
     FM141400 27004KT P6SM SCT250
     FM150000 27003KT P6SM SKC=

USA.gov is the U.S. government's official web portal to all federal, state and local government web resources and services.